sensor_id;sensor_type;location;lat;lon;timestamp;P1;durP1;ratioP1;P2;durP2;ratioP2
16577;SDS011;8401;52.528;13.340;2023-12-20T00:02:18;5.97;;;4.70;;
16577;SDS011;8401;52.528;13.340;2023-12-20T00:04:43;6.63;;;5.17;;
16577;SDS011;8401;52.528;13.340;2023-12-20T00:07:09;6.63;;;4.70;;
16577;SDS011;8401;52.528;13.340;2023-12-20T00:09:34;6.33;;;4.80;;
16577;SDS011;8401;52.528;13.340;2023-12-20T00:12:00;5.33;;;4.50;;
16577;SDS011;8401;52.528;13.340;2023-12-20T00:14:26;6.53;;;4.80;;
16577;SDS011;8401;52.528;13.340;2023-12-20T00:16:51;6.67;;;5.10;;
16577;SDS011;8401;52.528;13.340;2023-12-20T00:19:17;6.50;;;5.40;;
16577;SDS011;8401;52.528;13.340;2023-12-20T00:21:42;6.57;;;5.57;;
16577;SDS011;8401;52.528;13.340;2023-12-20T00:24:08;6.87;;;5.50;;
16577;SDS011;8401;52.528;13.340;2023-12-20T00:26:34;7.67;;;5.23;;
16577;SDS011;8401;52.528;13.340;2023-12-20T00:28:59;7.03;;;5.53;;
16577;SDS011;8401;52.528;13.340;2023-12-20T00:31:25;6.73;;;5.00;;
16577;SDS011;8401;52.528;13.340;2023-12-20T00:33:50;7.00;;;4.93;;
16577;SDS011;8401;52.528;13.340;2023-12-20T00:36:16;6.40;;;4.73;;
16577;SDS011;8401;52.528;13.340;2023-12-20T00:38:42;5.37;;;4.43;;
16577;SDS011;8401;52.528;13.340;2023-12-20T00:41:07;5.40;;;4.40;;
16577;SDS011;8401;52.528;13.340;2023-12-20T00:43:33;6.10;;;4.80;;
16577;SDS011;8401;52.528;13.340;2023-12-20T00:45:58;6.43;;;4.53;;
16577;SDS011;8401;52.528;13.340;2023-12-20T00:48:25;5.93;;;5.17;;
16577;SDS011;8401;52.528;13.340;2023-12-20T00:50:52;6.33;;;4.87;;
16577;SDS011;8401;52.528;13.340;2023-12-20T00:53:17;6.97;;;5.50;;
16577;SDS011;8401;52.528;13.340;2023-12-20T00:55:43;6.10;;;4.53;;
16577;SDS011;8401;52.528;13.340;2023-12-20T00:58:09;8.20;;;5.17;;
16577;SDS011;8401;52.528;13.340;2023-12-20T01:00:35;5.77;;;4.73;;
16577;SDS011;8401;52.528;13.340;2023-12-20T01:03:01;6.97;;;5.20;;
16577;SDS011;8401;52.528;13.340;2023-12-20T01:05:27;6.40;;;5.10;;
16577;SDS011;8401;52.528;13.340;2023-12-20T01:07:52;5.57;;;4.57;;
16577;SDS011;8401;52.528;13.340;2023-12-20T01:10:18;6.87;;;5.60;;
16577;SDS011;8401;52.528;13.340;2023-12-20T01:12:44;8.50;;;5.97;;
16577;SDS011;8401;52.528;13.340;2023-12-20T01:15:09;6.37;;;5.17;;
16577;SDS011;8401;52.528;13.340;2023-12-20T01:17:35;8.33;;;6.00;;
16577;SDS011;8401;52.528;13.340;2023-12-20T01:20:01;7.43;;;5.67;;
16577;SDS011;8401;52.528;13.340;2023-12-20T01:22:27;6.57;;;5.50;;
16577;SDS011;8401;52.528;13.340;2023-12-20T01:24:52;7.10;;;5.30;;
16577;SDS011;8401;52.528;13.340;2023-12-20T01:27:18;6.90;;;5.40;;
16577;SDS011;8401;52.528;13.340;2023-12-20T01:29:44;6.63;;;5.53;;
16577;SDS011;8401;52.528;13.340;2023-12-20T01:32:09;7.23;;;5.10;;
16577;SDS011;8401;52.528;13.340;2023-12-20T01:34:35;7.13;;;5.23;;
16577;SDS011;8401;52.528;13.340;2023-12-20T01:37:01;6.73;;;5.07;;
16577;SDS011;8401;52.528;13.340;2023-12-20T01:39:27;7.40;;;5.10;;
16577;SDS011;8401;52.528;13.340;2023-12-20T01:41:53;7.47;;;5.93;;
16577;SDS011;8401;52.528;13.340;2023-12-20T01:44:19;6.77;;;4.80;;
16577;SDS011;8401;52.528;13.340;2023-12-20T01:46:44;6.70;;;5.07;;
16577;SDS011;8401;52.528;13.340;2023-12-20T01:49:11;6.27;;;4.60;;
16577;SDS011;8401;52.528;13.340;2023-12-20T01:51:37;6.50;;;5.07;;
16577;SDS011;8401;52.528;13.340;2023-12-20T01:54:03;6.23;;;4.87;;
16577;SDS011;8401;52.528;13.340;2023-12-20T01:56:29;6.60;;;5.03;;
16577;SDS011;8401;52.528;13.340;2023-12-20T01:58:56;6.27;;;4.67;;
16577;SDS011;8401;52.528;13.340;2023-12-20T02:01:23;6.87;;;5.10;;
16577;SDS011;8401;52.528;13.340;2023-12-20T02:03:49;6.67;;;5.20;;
16577;SDS011;8401;52.528;13.340;2023-12-20T02:06:15;7.13;;;4.83;;
16577;SDS011;8401;52.528;13.340;2023-12-20T02:08:43;6.43;;;4.40;;
16577;SDS011;8401;52.528;13.340;2023-12-20T02:11:08;5.23;;;3.53;;
16577;SDS011;8401;52.528;13.340;2023-12-20T02:13:35;3.67;;;1.97;;
16577;SDS011;8401;52.528;13.340;2023-12-20T02:16:01;2.93;;;1.87;;
16577;SDS011;8401;52.528;13.340;2023-12-20T02:18:26;3.40;;;2.07;;
16577;SDS011;8401;52.528;13.340;2023-12-20T02:20:52;3.40;;;2.43;;
16577;SDS011;8401;52.528;13.340;2023-12-20T02:23:18;4.60;;;3.20;;
16577;SDS011;8401;52.528;13.340;2023-12-20T02:25:44;5.70;;;3.87;;
16577;SDS011;8401;52.528;13.340;2023-12-20T02:28:09;4.47;;;3.73;;
16577;SDS011;8401;52.528;13.340;2023-12-20T02:30:35;6.00;;;4.40;;
16577;SDS011;8401;52.528;13.340;2023-12-20T02:33:01;6.10;;;4.17;;
16577;SDS011;8401;52.528;13.340;2023-12-20T02:35:33;5.87;;;4.40;;
16577;SDS011;8401;52.528;13.340;2023-12-20T02:37:58;6.97;;;3.73;;
16577;SDS011;8401;52.528;13.340;2023-12-20T02:40:24;6.97;;;4.20;;
16577;SDS011;8401;52.528;13.340;2023-12-20T02:42:49;6.63;;;4.53;;
16577;SDS011;8401;52.528;13.340;2023-12-20T02:45:15;6.80;;;5.07;;
16577;SDS011;8401;52.528;13.340;2023-12-20T02:47:40;7.13;;;5.37;;
16577;SDS011;8401;52.528;13.340;2023-12-20T02:50:06;8.00;;;5.50;;
16577;SDS011;8401;52.528;13.340;2023-12-20T02:52:32;9.67;;;5.40;;
16577;SDS011;8401;52.528;13.340;2023-12-20T02:54:58;7.30;;;5.40;;
16577;SDS011;8401;52.528;13.340;2023-12-20T02:57:23;7.40;;;5.10;;
16577;SDS011;8401;52.528;13.340;2023-12-20T02:59:49;10.80;;;6.40;;
16577;SDS011;8401;52.528;13.340;2023-12-20T03:02:14;6.77;;;5.13;;
16577;SDS011;8401;52.528;13.340;2023-12-20T03:04:40;7.30;;;4.60;;
16577;SDS011;8401;52.528;13.340;2023-12-20T03:07:05;7.47;;;4.67;;
16577;SDS011;8401;52.528;13.340;2023-12-20T03:09:31;6.23;;;4.30;;
16577;SDS011;8401;52.528;13.340;2023-12-20T03:11:57;7.37;;;4.43;;
16577;SDS011;8401;52.528;13.340;2023-12-20T03:14:22;5.83;;;3.70;;
16577;SDS011;8401;52.528;13.340;2023-12-20T03:16:51;5.40;;;3.37;;
16577;SDS011;8401;52.528;13.340;2023-12-20T03:19:17;6.60;;;3.27;;
16577;SDS011;8401;52.528;13.340;2023-12-20T03:21:43;5.40;;;3.17;;
16577;SDS011;8401;52.528;13.340;2023-12-20T03:24:09;5.30;;;3.10;;
16577;SDS011;8401;52.528;13.340;2023-12-20T03:26:35;6.50;;;3.17;;
16577;SDS011;8401;52.528;13.340;2023-12-20T03:29:00;7.53;;;3.70;;
16577;SDS011;8401;52.528;13.340;2023-12-20T03:31:26;8.90;;;3.37;;
16577;SDS011;8401;52.528;13.340;2023-12-20T03:33:51;5.90;;;2.47;;
16577;SDS011;8401;52.528;13.340;2023-12-20T03:36:18;4.37;;;2.20;;
16577;SDS011;8401;52.528;13.340;2023-12-20T03:38:44;4.97;;;2.60;;
16577;SDS011;8401;52.528;13.340;2023-12-20T03:41:10;4.30;;;2.20;;
16577;SDS011;8401;52.528;13.340;2023-12-20T03:43:36;5.57;;;2.27;;
16577;SDS011;8401;52.528;13.340;2023-12-20T03:46:02;6.73;;;2.43;;
16577;SDS011;8401;52.528;13.340;2023-12-20T03:48:29;4.43;;;2.07;;
16577;SDS011;8401;52.528;13.340;2023-12-20T03:50:55;6.47;;;2.40;;
16577;SDS011;8401;52.528;13.340;2023-12-20T03:53:21;8.50;;;2.03;;
16577;SDS011;8401;52.528;13.340;2023-12-20T03:55:47;7.23;;;2.00;;
16577;SDS011;8401;52.528;13.340;2023-12-20T03:58:12;10.17;;;2.13;;
16577;SDS011;8401;52.528;13.340;2023-12-20T04:00:38;6.40;;;2.03;;
16577;SDS011;8401;52.528;13.340;2023-12-20T04:03:04;7.87;;;2.40;;
16577;SDS011;8401;52.528;13.340;2023-12-20T04:05:29;5.47;;;2.00;;
16577;SDS011;8401;52.528;13.340;2023-12-20T04:07:55;6.40;;;1.63;;
16577;SDS011;8401;52.528;13.340;2023-12-20T04:10:20;4.10;;;1.80;;
16577;SDS011;8401;52.528;13.340;2023-12-20T04:12:46;8.53;;;1.90;;
16577;SDS011;8401;52.528;13.340;2023-12-20T04:15:12;5.07;;;1.50;;
16577;SDS011;8401;52.528;13.340;2023-12-20T04:17:37;5.97;;;2.07;;
16577;SDS011;8401;52.528;13.340;2023-12-20T04:20:03;6.33;;;1.70;;
16577;SDS011;8401;52.528;13.340;2023-12-20T04:22:30;6.73;;;1.83;;
16577;SDS011;8401;52.528;13.340;2023-12-20T04:24:55;6.90;;;1.73;;
16577;SDS011;8401;52.528;13.340;2023-12-20T04:27:21;10.87;;;1.83;;
16577;SDS011;8401;52.528;13.340;2023-12-20T04:29:46;7.77;;;2.63;;
16577;SDS011;8401;52.528;13.340;2023-12-20T04:32:12;5.63;;;1.73;;
16577;SDS011;8401;52.528;13.340;2023-12-20T04:34:37;5.03;;;1.90;;
16577;SDS011;8401;52.528;13.340;2023-12-20T04:37:03;12.43;;;2.83;;
16577;SDS011;8401;52.528;13.340;2023-12-20T04:39:29;8.73;;;2.43;;
16577;SDS011;8401;52.528;13.340;2023-12-20T04:41:54;5.93;;;2.13;;
16577;SDS011;8401;52.528;13.340;2023-12-20T04:44:20;5.10;;;2.13;;
16577;SDS011;8401;52.528;13.340;2023-12-20T04:46:45;5.03;;;1.97;;
16577;SDS011;8401;52.528;13.340;2023-12-20T04:49:11;6.23;;;1.90;;
16577;SDS011;8401;52.528;13.340;2023-12-20T04:51:37;10.80;;;2.50;;
16577;SDS011;8401;52.528;13.340;2023-12-20T04:54:03;5.93;;;2.17;;
16577;SDS011;8401;52.528;13.340;2023-12-20T04:56:29;5.73;;;1.83;;
16577;SDS011;8401;52.528;13.340;2023-12-20T04:58:54;7.23;;;2.13;;
16577;SDS011;8401;52.528;13.340;2023-12-20T05:01:20;5.80;;;2.10;;
16577;SDS011;8401;52.528;13.340;2023-12-20T05:03:46;8.33;;;2.73;;
16577;SDS011;8401;52.528;13.340;2023-12-20T05:06:12;5.40;;;2.33;;
16577;SDS011;8401;52.528;13.340;2023-12-20T05:08:37;6.80;;;1.80;;
16577;SDS011;8401;52.528;13.340;2023-12-20T05:11:03;9.70;;;2.90;;
16577;SDS011;8401;52.528;13.340;2023-12-20T05:13:29;8.53;;;2.10;;
16577;SDS011;8401;52.528;13.340;2023-12-20T05:15:55;9.47;;;2.40;;
16577;SDS011;8401;52.528;13.340;2023-12-20T05:18:20;11.87;;;2.50;;
16577;SDS011;8401;52.528;13.340;2023-12-20T05:20:47;4.33;;;2.20;;
16577;SDS011;8401;52.528;13.340;2023-12-20T05:23:12;6.67;;;2.60;;
16577;SDS011;8401;52.528;13.340;2023-12-20T05:25:38;6.50;;;1.60;;
16577;SDS011;8401;52.528;13.340;2023-12-20T05:28:04;7.67;;;1.67;;
16577;SDS011;8401;52.528;13.340;2023-12-20T05:30:30;7.30;;;2.50;;
16577;SDS011;8401;52.528;13.340;2023-12-20T05:32:56;7.27;;;1.90;;
16577;SDS011;8401;52.528;13.340;2023-12-20T05:35:21;10.97;;;2.40;;
16577;SDS011;8401;52.528;13.340;2023-12-20T05:37:48;5.53;;;2.07;;
16577;SDS011;8401;52.528;13.340;2023-12-20T05:40:14;5.00;;;2.07;;
16577;SDS011;8401;52.528;13.340;2023-12-20T05:42:40;6.00;;;1.60;;
16577;SDS011;8401;52.528;13.340;2023-12-20T05:45:06;7.87;;;2.13;;
16577;SDS011;8401;52.528;13.340;2023-12-20T05:47:31;5.57;;;2.20;;
16577;SDS011;8401;52.528;13.340;2023-12-20T05:49:57;6.57;;;2.47;;
16577;SDS011;8401;52.528;13.340;2023-12-20T05:52:23;10.10;;;2.30;;
16577;SDS011;8401;52.528;13.340;2023-12-20T05:54:49;5.97;;;2.10;;
16577;SDS011;8401;52.528;13.340;2023-12-20T05:57:14;4.50;;;1.70;;
16577;SDS011;8401;52.528;13.340;2023-12-20T05:59:40;5.23;;;2.10;;
16577;SDS011;8401;52.528;13.340;2023-12-20T06:02:06;6.10;;;1.60;;
16577;SDS011;8401;52.528;13.340;2023-12-20T06:04:31;4.83;;;1.67;;
16577;SDS011;8401;52.528;13.340;2023-12-20T06:06:57;6.93;;;1.80;;
16577;SDS011;8401;52.528;13.340;2023-12-20T06:09:23;4.97;;;1.97;;
16577;SDS011;8401;52.528;13.340;2023-12-20T06:11:49;10.03;;;1.93;;
16577;SDS011;8401;52.528;13.340;2023-12-20T06:14:16;6.00;;;1.70;;
16577;SDS011;8401;52.528;13.340;2023-12-20T06:16:41;2.90;;;1.50;;
16577;SDS011;8401;52.528;13.340;2023-12-20T06:19:07;6.40;;;1.70;;
16577;SDS011;8401;52.528;13.340;2023-12-20T06:21:32;8.63;;;2.40;;
16577;SDS011;8401;52.528;13.340;2023-12-20T06:23:58;10.40;;;2.00;;
16577;SDS011;8401;52.528;13.340;2023-12-20T06:26:25;3.20;;;1.90;;
16577;SDS011;8401;52.528;13.340;2023-12-20T06:28:50;5.43;;;1.70;;
16577;SDS011;8401;52.528;13.340;2023-12-20T06:31:16;4.40;;;1.93;;
16577;SDS011;8401;52.528;13.340;2023-12-20T06:33:42;5.37;;;1.70;;
16577;SDS011;8401;52.528;13.340;2023-12-20T06:36:11;10.57;;;1.93;;
16577;SDS011;8401;52.528;13.340;2023-12-20T06:38:38;5.00;;;1.43;;
16577;SDS011;8401;52.528;13.340;2023-12-20T06:41:04;3.67;;;1.80;;
16577;SDS011;8401;52.528;13.340;2023-12-20T06:43:29;12.27;;;2.17;;
16577;SDS011;8401;52.528;13.340;2023-12-20T06:45:56;6.30;;;1.70;;
16577;SDS011;8401;52.528;13.340;2023-12-20T06:48:22;6.73;;;2.07;;
16577;SDS011;8401;52.528;13.340;2023-12-20T06:50:47;7.47;;;1.80;;
16577;SDS011;8401;52.528;13.340;2023-12-20T06:53:13;4.90;;;1.80;;
16577;SDS011;8401;52.528;13.340;2023-12-20T06:55:38;10.93;;;2.00;;
16577;SDS011;8401;52.528;13.340;2023-12-20T06:58:04;5.87;;;1.87;;
16577;SDS011;8401;52.528;13.340;2023-12-20T07:00:30;6.73;;;1.93;;
16577;SDS011;8401;52.528;13.340;2023-12-20T07:02:57;6.73;;;1.87;;
16577;SDS011;8401;52.528;13.340;2023-12-20T07:05:22;7.50;;;2.10;;
16577;SDS011;8401;52.528;13.340;2023-12-20T07:07:48;6.27;;;1.90;;
16577;SDS011;8401;52.528;13.340;2023-12-20T07:10:14;4.63;;;1.77;;
16577;SDS011;8401;52.528;13.340;2023-12-20T07:12:39;4.87;;;1.80;;
16577;SDS011;8401;52.528;13.340;2023-12-20T07:15:05;4.27;;;1.73;;
16577;SDS011;8401;52.528;13.340;2023-12-20T07:17:32;5.50;;;1.83;;
16577;SDS011;8401;52.528;13.340;2023-12-20T07:19:58;9.67;;;2.13;;
16577;SDS011;8401;52.528;13.340;2023-12-20T07:22:28;6.33;;;2.60;;
16577;SDS011;8401;52.528;13.340;2023-12-20T07:24:57;8.77;;;2.00;;
16577;SDS011;8401;52.528;13.340;2023-12-20T07:27:23;9.43;;;1.80;;
16577;SDS011;8401;52.528;13.340;2023-12-20T07:29:49;5.97;;;2.03;;
16577;SDS011;8401;52.528;13.340;2023-12-20T07:32:14;6.67;;;2.27;;
16577;SDS011;8401;52.528;13.340;2023-12-20T07:34:40;9.00;;;2.57;;
16577;SDS011;8401;52.528;13.340;2023-12-20T07:37:06;7.40;;;2.30;;
16577;SDS011;8401;52.528;13.340;2023-12-20T07:39:31;5.00;;;2.00;;
16577;SDS011;8401;52.528;13.340;2023-12-20T07:41:57;6.50;;;2.10;;
16577;SDS011;8401;52.528;13.340;2023-12-20T07:44:23;10.63;;;2.13;;
16577;SDS011;8401;52.528;13.340;2023-12-20T07:46:48;8.83;;;1.90;;
16577;SDS011;8401;52.528;13.340;2023-12-20T07:49:14;8.80;;;3.00;;
16577;SDS011;8401;52.528;13.340;2023-12-20T07:51:39;6.43;;;1.80;;
16577;SDS011;8401;52.528;13.340;2023-12-20T07:54:05;7.23;;;2.10;;
16577;SDS011;8401;52.528;13.340;2023-12-20T07:56:33;8.27;;;2.13;;
16577;SDS011;8401;52.528;13.340;2023-12-20T07:58:58;5.87;;;1.83;;
16577;SDS011;8401;52.528;13.340;2023-12-20T08:01:24;7.23;;;2.23;;
16577;SDS011;8401;52.528;13.340;2023-12-20T08:03:50;6.07;;;2.23;;
16577;SDS011;8401;52.528;13.340;2023-12-20T08:06:15;5.10;;;2.73;;
16577;SDS011;8401;52.528;13.340;2023-12-20T08:08:42;5.03;;;1.90;;
16577;SDS011;8401;52.528;13.340;2023-12-20T08:11:08;3.07;;;1.57;;
16577;SDS011;8401;52.528;13.340;2023-12-20T08:13:33;4.23;;;1.90;;
16577;SDS011;8401;52.528;13.340;2023-12-20T08:15:59;7.80;;;1.83;;
16577;SDS011;8401;52.528;13.340;2023-12-20T08:18:24;11.33;;;2.70;;
16577;SDS011;8401;52.528;13.340;2023-12-20T08:20:50;8.40;;;2.13;;
16577;SDS011;8401;52.528;13.340;2023-12-20T08:23:17;4.73;;;2.13;;
16577;SDS011;8401;52.528;13.340;2023-12-20T08:25:45;6.23;;;1.90;;
16577;SDS011;8401;52.528;13.340;2023-12-20T08:28:11;13.50;;;2.43;;
16577;SDS011;8401;52.528;13.340;2023-12-20T08:30:36;9.47;;;2.23;;
16577;SDS011;8401;52.528;13.340;2023-12-20T08:33:02;8.90;;;2.53;;
16577;SDS011;8401;52.528;13.340;2023-12-20T08:35:28;4.07;;;1.83;;
16577;SDS011;8401;52.528;13.340;2023-12-20T08:37:53;6.43;;;2.20;;
16577;SDS011;8401;52.528;13.340;2023-12-20T08:40:19;6.13;;;2.03;;
16577;SDS011;8401;52.528;13.340;2023-12-20T08:42:45;5.87;;;1.70;;
16577;SDS011;8401;52.528;13.340;2023-12-20T08:45:11;6.47;;;1.90;;
16577;SDS011;8401;52.528;13.340;2023-12-20T08:47:36;6.53;;;1.83;;
16577;SDS011;8401;52.528;13.340;2023-12-20T08:50:02;9.00;;;1.87;;
16577;SDS011;8401;52.528;13.340;2023-12-20T08:52:28;6.63;;;1.90;;
16577;SDS011;8401;52.528;13.340;2023-12-20T08:54:54;7.30;;;2.27;;
16577;SDS011;8401;52.528;13.340;2023-12-20T08:57:20;7.00;;;2.03;;
16577;SDS011;8401;52.528;13.340;2023-12-20T08:59:48;5.80;;;2.03;;
16577;SDS011;8401;52.528;13.340;2023-12-20T09:02:13;10.00;;;2.03;;
16577;SDS011;8401;52.528;13.340;2023-12-20T09:04:39;6.17;;;2.07;;
16577;SDS011;8401;52.528;13.340;2023-12-20T09:07:05;5.77;;;1.50;;
16577;SDS011;8401;52.528;13.340;2023-12-20T09:09:31;6.17;;;1.60;;
16577;SDS011;8401;52.528;13.340;2023-12-20T09:11:57;5.17;;;1.60;;
16577;SDS011;8401;52.528;13.340;2023-12-20T09:14:23;7.40;;;2.00;;
16577;SDS011;8401;52.528;13.340;2023-12-20T09:16:48;6.70;;;2.90;;
16577;SDS011;8401;52.528;13.340;2023-12-20T09:19:16;5.27;;;2.50;;
16577;SDS011;8401;52.528;13.340;2023-12-20T09:21:42;7.07;;;2.10;;
16577;SDS011;8401;52.528;13.340;2023-12-20T09:24:08;9.20;;;2.00;;
16577;SDS011;8401;52.528;13.340;2023-12-20T09:26:34;8.53;;;2.13;;
16577;SDS011;8401;52.528;13.340;2023-12-20T09:29:00;5.33;;;1.97;;
16577;SDS011;8401;52.528;13.340;2023-12-20T09:31:25;5.27;;;1.90;;
16577;SDS011;8401;52.528;13.340;2023-12-20T09:33:51;8.00;;;2.10;;
16577;SDS011;8401;52.528;13.340;2023-12-20T09:36:17;4.90;;;1.83;;
16577;SDS011;8401;52.528;13.340;2023-12-20T09:38:43;10.13;;;2.70;;
16577;SDS011;8401;52.528;13.340;2023-12-20T09:41:08;11.60;;;2.70;;
16577;SDS011;8401;52.528;13.340;2023-12-20T09:43:35;4.97;;;1.87;;
16577;SDS011;8401;52.528;13.340;2023-12-20T09:46:02;5.87;;;1.70;;
16577;SDS011;8401;52.528;13.340;2023-12-20T09:48:31;9.27;;;2.63;;
16577;SDS011;8401;52.528;13.340;2023-12-20T09:50:57;7.23;;;2.07;;
16577;SDS011;8401;52.528;13.340;2023-12-20T09:53:23;4.57;;;2.00;;
16577;SDS011;8401;52.528;13.340;2023-12-20T09:55:55;10.33;;;2.20;;
16577;SDS011;8401;52.528;13.340;2023-12-20T09:58:26;9.67;;;2.03;;
16577;SDS011;8401;52.528;13.340;2023-12-20T10:00:52;4.77;;;1.87;;
16577;SDS011;8401;52.528;13.340;2023-12-20T10:03:25;5.97;;;2.00;;
16577;SDS011;8401;52.528;13.340;2023-12-20T10:05:54;4.57;;;1.97;;
16577;SDS011;8401;52.528;13.340;2023-12-20T10:08:22;5.63;;;2.10;;
16577;SDS011;8401;52.528;13.340;2023-12-20T10:10:49;3.90;;;2.10;;
16577;SDS011;8401;52.528;13.340;2023-12-20T10:13:15;4.83;;;2.10;;
16577;SDS011;8401;52.528;13.340;2023-12-20T10:15:43;9.40;;;2.00;;
16577;SDS011;8401;52.528;13.340;2023-12-20T10:18:08;12.73;;;2.40;;
16577;SDS011;8401;52.528;13.340;2023-12-20T10:20:34;7.60;;;2.13;;
16577;SDS011;8401;52.528;13.340;2023-12-20T10:23:00;5.90;;;1.83;;
16577;SDS011;8401;52.528;13.340;2023-12-20T10:25:26;6.80;;;2.00;;
16577;SDS011;8401;52.528;13.340;2023-12-20T10:30:42;8.77;;;2.43;;
16577;SDS011;8401;52.528;13.340;2023-12-20T10:33:08;5.73;;;1.80;;
16577;SDS011;8401;52.528;13.340;2023-12-20T10:35:35;5.43;;;1.40;;
16577;SDS011;8401;52.528;13.340;2023-12-20T10:38:03;9.57;;;2.77;;
16577;SDS011;8401;52.528;13.340;2023-12-20T10:40:30;7.23;;;2.27;;
16577;SDS011;8401;52.528;13.340;2023-12-20T10:42:56;6.20;;;1.80;;
16577;SDS011;8401;52.528;13.340;2023-12-20T10:45:24;11.60;;;3.13;;
16577;SDS011;8401;52.528;13.340;2023-12-20T10:47:50;5.57;;;2.10;;
16577;SDS011;8401;52.528;13.340;2023-12-20T10:50:16;8.77;;;2.30;;
16577;SDS011;8401;52.528;13.340;2023-12-20T10:52:44;7.80;;;2.20;;
16577;SDS011;8401;52.528;13.340;2023-12-20T10:55:11;8.63;;;2.37;;
16577;SDS011;8401;52.528;13.340;2023-12-20T10:57:37;12.40;;;2.47;;
16577;SDS011;8401;52.528;13.340;2023-12-20T11:00:04;12.67;;;2.77;;
16577;SDS011;8401;52.528;13.340;2023-12-20T11:02:34;8.27;;;2.70;;
16577;SDS011;8401;52.528;13.340;2023-12-20T11:07:43;9.10;;;2.57;;
16577;SDS011;8401;52.528;13.340;2023-12-20T11:10:21;7.73;;;2.27;;
16577;SDS011;8401;52.528;13.340;2023-12-20T11:12:57;7.30;;;2.20;;
16577;SDS011;8401;52.528;13.340;2023-12-20T11:15:24;8.57;;;2.67;;
16577;SDS011;8401;52.528;13.340;2023-12-20T11:17:55;4.93;;;2.43;;
16577;SDS011;8401;52.528;13.340;2023-12-20T11:20:35;7.17;;;2.37;;
16577;SDS011;8401;52.528;13.340;2023-12-20T11:23:05;10.87;;;3.07;;
16577;SDS011;8401;52.528;13.340;2023-12-20T11:25:53;9.23;;;3.17;;
16577;SDS011;8401;52.528;13.340;2023-12-20T11:28:21;9.27;;;2.60;;
16577;SDS011;8401;52.528;13.340;2023-12-20T11:30:50;8.37;;;2.90;;
16577;SDS011;8401;52.528;13.340;2023-12-20T11:33:23;5.53;;;2.20;;
16577;SDS011;8401;52.528;13.340;2023-12-20T11:35:49;4.97;;;2.20;;
16577;SDS011;8401;52.528;13.340;2023-12-20T11:38:16;7.50;;;2.40;;
16577;SDS011;8401;52.528;13.340;2023-12-20T11:40:42;11.27;;;2.80;;
16577;SDS011;8401;52.528;13.340;2023-12-20T11:43:09;14.70;;;2.83;;
16577;SDS011;8401;52.528;13.340;2023-12-20T11:45:34;7.13;;;2.63;;
16577;SDS011;8401;52.528;13.340;2023-12-20T11:48:01;7.57;;;2.37;;
16577;SDS011;8401;52.528;13.340;2023-12-20T11:50:27;6.20;;;2.30;;
16577;SDS011;8401;52.528;13.340;2023-12-20T11:52:54;5.40;;;2.27;;
16577;SDS011;8401;52.528;13.340;2023-12-20T11:55:21;5.70;;;2.80;;
16577;SDS011;8401;52.528;13.340;2023-12-20T11:57:48;8.37;;;3.50;;
16577;SDS011;8401;52.528;13.340;2023-12-20T12:00:15;8.87;;;2.50;;
16577;SDS011;8401;52.528;13.340;2023-12-20T12:02:41;8.43;;;2.60;;
16577;SDS011;8401;52.528;13.340;2023-12-20T12:05:07;10.77;;;2.47;;
16577;SDS011;8401;52.528;13.340;2023-12-20T12:07:33;8.33;;;2.73;;
16577;SDS011;8401;52.528;13.340;2023-12-20T12:10:00;6.47;;;1.77;;
16577;SDS011;8401;52.528;13.340;2023-12-20T12:12:25;9.83;;;2.60;;
16577;SDS011;8401;52.528;13.340;2023-12-20T12:14:52;7.93;;;2.67;;
16577;SDS011;8401;52.528;13.340;2023-12-20T12:17:19;8.77;;;2.77;;
16577;SDS011;8401;52.528;13.340;2023-12-20T12:19:45;9.57;;;2.67;;
16577;SDS011;8401;52.528;13.340;2023-12-20T12:22:12;8.57;;;2.07;;
16577;SDS011;8401;52.528;13.340;2023-12-20T12:24:44;5.33;;;1.73;;
16577;SDS011;8401;52.528;13.340;2023-12-20T12:27:11;10.93;;;2.20;;
16577;SDS011;8401;52.528;13.340;2023-12-20T12:29:37;5.70;;;1.90;;
16577;SDS011;8401;52.528;13.340;2023-12-20T12:32:07;4.50;;;2.20;;
16577;SDS011;8401;52.528;13.340;2023-12-20T12:34:33;7.70;;;2.47;;
16577;SDS011;8401;52.528;13.340;2023-12-20T12:37:00;10.50;;;2.23;;
16577;SDS011;8401;52.528;13.340;2023-12-20T12:39:26;7.77;;;1.90;;
16577;SDS011;8401;52.528;13.340;2023-12-20T12:41:52;8.10;;;2.57;;
16577;SDS011;8401;52.528;13.340;2023-12-20T12:44:18;8.40;;;2.87;;
16577;SDS011;8401;52.528;13.340;2023-12-20T12:46:45;4.93;;;2.10;;
16577;SDS011;8401;52.528;13.340;2023-12-20T12:49:12;6.07;;;2.23;;
16577;SDS011;8401;52.528;13.340;2023-12-20T12:51:38;7.60;;;2.77;;
16577;SDS011;8401;52.528;13.340;2023-12-20T12:54:03;6.60;;;2.20;;
16577;SDS011;8401;52.528;13.340;2023-12-20T12:56:29;7.50;;;3.40;;
16577;SDS011;8401;52.528;13.340;2023-12-20T12:58:55;8.50;;;2.97;;
16577;SDS011;8401;52.528;13.340;2023-12-20T13:01:21;5.53;;;2.60;;
16577;SDS011;8401;52.528;13.340;2023-12-20T13:03:47;6.13;;;2.53;;
16577;SDS011;8401;52.528;13.340;2023-12-20T13:06:12;10.13;;;2.87;;
16577;SDS011;8401;52.528;13.340;2023-12-20T13:08:38;5.57;;;2.47;;
16577;SDS011;8401;52.528;13.340;2023-12-20T13:11:04;9.10;;;3.00;;
16577;SDS011;8401;52.528;13.340;2023-12-20T13:13:30;5.40;;;2.87;;
16577;SDS011;8401;52.528;13.340;2023-12-20T13:15:56;8.20;;;3.03;;
16577;SDS011;8401;52.528;13.340;2023-12-20T13:18:22;5.67;;;3.13;;
16577;SDS011;8401;52.528;13.340;2023-12-20T13:20:48;6.10;;;2.93;;
16577;SDS011;8401;52.528;13.340;2023-12-20T13:23:14;4.87;;;1.40;;
16577;SDS011;8401;52.528;13.340;2023-12-20T13:25:41;3.80;;;1.60;;
16577;SDS011;8401;52.528;13.340;2023-12-20T13:28:07;2.43;;;1.30;;
16577;SDS011;8401;52.528;13.340;2023-12-20T13:30:33;1.77;;;1.20;;
16577;SDS011;8401;52.528;13.340;2023-12-20T13:32:59;2.50;;;1.00;;
16577;SDS011;8401;52.528;13.340;2023-12-20T13:35:25;2.87;;;1.10;;
16577;SDS011;8401;52.528;13.340;2023-12-20T13:37:50;2.20;;;0.90;;
16577;SDS011;8401;52.528;13.340;2023-12-20T13:40:16;2.30;;;0.70;;
16577;SDS011;8401;52.528;13.340;2023-12-20T13:42:41;1.57;;;0.70;;
16577;SDS011;8401;52.528;13.340;2023-12-20T13:45:07;2.47;;;0.97;;
16577;SDS011;8401;52.528;13.340;2023-12-20T13:47:33;3.80;;;1.03;;
16577;SDS011;8401;52.528;13.340;2023-12-20T13:49:59;1.97;;;0.93;;
16577;SDS011;8401;52.528;13.340;2023-12-20T13:52:24;2.10;;;0.73;;
16577;SDS011;8401;52.528;13.340;2023-12-20T13:54:50;1.73;;;0.70;;
16577;SDS011;8401;52.528;13.340;2023-12-20T13:57:15;2.10;;;0.80;;
16577;SDS011;8401;52.528;13.340;2023-12-20T13:59:41;2.60;;;0.97;;
16577;SDS011;8401;52.528;13.340;2023-12-20T14:02:07;1.53;;;1.10;;
16577;SDS011;8401;52.528;13.340;2023-12-20T14:04:32;4.80;;;1.40;;
16577;SDS011;8401;52.528;13.340;2023-12-20T14:06:58;3.43;;;1.20;;
16577;SDS011;8401;52.528;13.340;2023-12-20T14:09:24;3.53;;;1.37;;
16577;SDS011;8401;52.528;13.340;2023-12-20T14:11:50;2.27;;;1.03;;
16577;SDS011;8401;52.528;13.340;2023-12-20T14:14:15;1.53;;;0.97;;
16577;SDS011;8401;52.528;13.340;2023-12-20T14:16:41;3.03;;;1.83;;
16577;SDS011;8401;52.528;13.340;2023-12-20T14:19:10;1.77;;;0.50;;
16577;SDS011;8401;52.528;13.340;2023-12-20T14:21:36;1.27;;;0.60;;
16577;SDS011;8401;52.528;13.340;2023-12-20T14:24:02;1.87;;;0.90;;
16577;SDS011;8401;52.528;13.340;2023-12-20T14:26:29;2.73;;;1.07;;
16577;SDS011;8401;52.528;13.340;2023-12-20T14:28:55;1.33;;;1.13;;
16577;SDS011;8401;52.528;13.340;2023-12-20T14:31:21;2.93;;;1.47;;
16577;SDS011;8401;52.528;13.340;2023-12-20T14:33:49;1.90;;;0.70;;
16577;SDS011;8401;52.528;13.340;2023-12-20T14:36:15;0.77;;;0.50;;
16577;SDS011;8401;52.528;13.340;2023-12-20T14:38:45;3.07;;;0.70;;
16577;SDS011;8401;52.528;13.340;2023-12-20T14:41:12;1.93;;;0.60;;
16577;SDS011;8401;52.528;13.340;2023-12-20T14:43:37;1.50;;;0.60;;
16577;SDS011;8401;52.528;13.340;2023-12-20T14:46:03;6.47;;;0.97;;